Time;durP1;ratioP1;P1;durP2;ratioP2;P2;SDS_P1;SDS_P2;PMS_P1;PMS_P2;Temp;Humidity;BMP_temperature;BMP_pressure;BME280_temperature;BME280_humidity;BME280_pressure;Samples;Min_cycle;Max_cycle;Signal;HPM_P1;HPM_P2
2023/01/29 00:02:11;;;;;;;;;;;;;;;-1.19;92.14;103013.63;5006781;28;19929;-67
2023/01/29 00:04:36;;;;;;;;;;;;;;;-1.18;92.12;103004.56;5000473;28;19922;-66
2023/01/29 00:07:01;;;;;;;;;;;;;;;-1.15;92.13;103008.91;5016609;28;19922;-66
2023/01/29 00:09:27;;;;;;;;;;;;;;;-1.19;91.97;103002.81;4997211;28;20261;-66
2023/01/29 00:11:52;;;;;;;;;;;;;;;-1.18;92.25;103001.84;5005821;28;19922;-66
2023/01/29 00:14:18;;;;;;;;;;;;;;;-1.14;92.17;102999.84;5007196;28;19925;-67
2023/01/29 00:16:43;;;;;;;;;;;;;;;-1.11;92.31;102999.63;5006570;28;19921;-66
2023/01/29 00:19:08;;;;;;;;;;;;;;;-1.10;92.25;102991.44;5009759;28;19929;-67
2023/01/29 00:21:33;;;;;;;;;;;;;;;-1.07;91.79;102991.22;5011335;28;20361;-66
2023/01/29 00:23:59;;;;;;;;;;;;;;;-1.07;91.98;102984.97;5011529;28;20012;-66
2023/01/29 00:26:24;;;;;;;;;;;;;;;-1.06;91.97;102987.56;5009894;28;19921;-66
2023/01/29 00:28:49;;;;;;;;;;;;;;;-1.06;92.07;102984.03;5011845;28;20432;-67
2023/01/29 00:31:17;;;;;;;;;;;;;;;-1.06;92.07;102982.19;5008047;28;20333;-67
2023/01/29 00:33:43;;;;;;;;;;;;;;;-1.03;91.82;102983.78;5011658;28;19929;-67
2023/01/29 00:36:09;;;;;;;;;;;;;;;-1.00;91.83;102980.03;5011442;28;19921;-67
2023/01/29 00:38:35;;;;;;;;;;;;;;;-0.98;91.87;102980.78;5012426;28;19971;-66
2023/01/29 00:46:34;;;;;;;;;;;;;;;-0.99;91.78;102961.06;5011360;28;19968;-66
2023/01/29 00:48:59;;;;;;;;;;;;;;;-1.00;91.72;102955.78;5010879;28;19964;-66
2023/01/29 00:51:25;;;;;;;;;;;;;;;-1.03;91.91;102953.28;5011979;28;19917;-67
2023/01/29 00:53:50;;;;;;;;;;;;;;;-1.08;91.77;102940.94;5011497;28;19922;-67
2023/01/29 00:56:15;;;;;;;;;;;;;;;-1.15;91.64;102939.66;5009925;28;20344;-67
2023/01/29 00:58:40;;;;;;;;;;;;;;;-1.20;92.07;102936.41;5010462;28;19925;-67
2023/01/29 01:01:05;;;;;;;;;;;;;;;-1.25;91.99;102941.22;5010624;28;19979;-67
2023/01/29 01:03:33;;;;;;;;;;;;;;;-1.27;91.99;102947.69;5010136;28;19921;-66
2023/01/29 01:06:05;;;;;;;;;;;;;;;-1.34;92.28;102944.53;5010500;28;20410;-66
2023/01/29 01:11:14;;;;;;;;;;;;;;;-1.37;92.27;102950.13;5009234;28;20448;-66
2023/01/29 01:13:40;;;;;;;;;;;;;;;-1.36;92.51;102957.25;5009286;28;20234;-67
2023/01/29 01:16:09;;;;;;;;;;;;;;;-1.35;92.75;102950.91;5010874;28;20353;-66
2023/01/29 01:18:35;;;;;;;;;;;;;;;-1.33;92.53;102947.13;5011486;28;19944;-66
2023/01/29 01:21:00;;;;;;;;;;;;;;;-1.29;92.29;102942.41;5010394;28;20352;-66
2023/01/29 01:23:26;;;;;;;;;;;;;;;-1.23;92.30;102941.97;5010441;28;20016;-66
2023/01/29 01:25:51;;;;;;;;;;;;;;;-1.20;92.80;102941.78;5008738;28;19917;-66
2023/01/29 01:28:17;;;;;;;;;;;;;;;-1.17;92.76;102946.09;5010485;28;20012;-67
2023/01/29 01:30:42;;;;;;;;;;;;;;;-1.15;92.65;102953.13;5012973;28;19921;-67
2023/01/29 01:33:07;;;;;;;;;;;;;;;-1.10;92.94;102944.75;5010683;28;19940;-67
2023/01/29 01:35:32;;;;;;;;;;;;;;;-1.08;92.86;102943.66;5010553;28;19921;-66
2023/01/29 01:37:57;;;;;;;;;;;;;;;-1.05;92.93;102948.84;5009840;28;20308;-67
2023/01/29 01:40:24;;;;;;;;;;;;;;;-1.02;92.72;102955.00;5010182;28;19925;-66
2023/01/29 01:42:50;;;;;;;;;;;;;;;-1.00;92.47;102942.28;5009371;28;19924;-67
2023/01/29 01:45:20;;;;;;;;;;;;;;;-0.95;91.87;102941.00;5009816;28;20004;-66
2023/01/29 01:47:47;;;;;;;;;;;;;;;-0.92;91.89;102942.63;5007985;28;19975;-66
2023/01/29 01:50:15;;;;;;;;;;;;;;;-0.96;92.06;102943.78;5010322;28;19921;-67
2023/01/29 01:52:43;;;;;;;;;;;;;;;-0.96;92.42;102946.47;5010093;28;19922;-67
2023/01/29 01:55:11;;;;;;;;;;;;;;;-0.98;92.04;102948.44;5010813;28;20283;-67
2023/01/29 01:57:36;;;;;;;;;;;;;;;-0.96;92.06;102947.38;5008786;28;19925;-66
2023/01/29 02:00:08;;;;;;;;;;;;;;;-0.97;92.48;102953.72;5008131;28;19928;-67
2023/01/29 02:10:46;;;;;;;;;;;;;;;-0.95;92.11;102961.72;5007999;28;20015;-67
2023/01/29 02:13:14;;;;;;;;;;;;;;;-0.95;92.06;102959.88;5009613;28;19921;-67
2023/01/29 02:15:45;;;;;;;;;;;;;;;-0.93;92.13;102967.88;5009583;28;19919;-67
2023/01/29 02:18:10;;;;;;;;;;;;;;;-0.94;92.06;102958.03;5009311;28;19928;-67
2023/01/29 02:20:37;;;;;;;;;;;;;;;-0.93;91.88;102963.31;5009528;28;20004;-66
2023/01/29 02:23:22;;;;;;;;;;;;;;;-0.91;92.25;102968.59;5008487;28;19943;-66
2023/01/29 02:25:53;;;;;;;;;;;;;;;-0.90;92.87;102964.97;5008740;28;19918;-67
2023/01/29 02:28:24;;;;;;;;;;;;;;;-0.87;92.53;102972.84;5009842;28;19925;-67
2023/01/29 02:31:01;;;;;;;;;;;;;;;-0.86;92.38;102964.66;5008923;28;19972;-66
2023/01/29 02:33:35;;;;;;;;;;;;;;;-0.84;92.37;102969.94;4995934;28;19984;-66
2023/01/29 02:38:49;;;;;;;;;;;;;;;-0.75;92.57;102961.22;5058359;28;19929;-64
2023/01/29 02:41:14;;;;;;;;;;;;;;;-0.75;92.08;102955.84;5061916;28;19967;-65
2023/01/29 02:43:54;;;;;;;;;;;;;;;-0.67;91.65;102961.53;5068481;28;20006;-65
2023/01/29 02:46:29;;;;;;;;;;;;;;;-0.72;92.22;102962.84;5068175;28;19942;-67
2023/01/29 02:49:00;;;;;;;;;;;;;;;-0.70;92.46;102952.81;5067228;28;20019;-66
2023/01/29 02:51:33;;;;;;;;;;;;;;;-0.68;91.83;102954.44;5068387;28;19921;-67
2023/01/29 02:54:13;;;;;;;;;;;;;;;-0.65;92.15;102959.63;5068107;28;19943;-66
2023/01/29 02:56:52;;;;;;;;;;;;;;;-0.65;92.25;102959.63;5066231;28;19924;-68
2023/01/29 02:59:20;;;;;;;;;;;;;;;-0.64;92.35;102949.69;5068233;28;20019;-67
2023/01/29 03:01:58;;;;;;;;;;;;;;;-0.64;92.35;102949.69;5066378;28;19920;-66
2023/01/29 03:04:29;;;;;;;;;;;;;;;-0.61;91.99;102950.34;5052769;28;19928;-66
2023/01/29 03:07:01;;;;;;;;;;;;;;;-0.61;91.97;102955.75;5060119;28;20309;-66
2023/01/29 03:09:34;;;;;;;;;;;;;;;-0.62;92.31;102953.13;5067820;28;19920;-67
2023/01/29 03:12:28;;;;;;;;;;;;;;;-0.60;92.39;102951.22;5066270;28;19912;-67
2023/01/29 03:15:13;;;;;;;;;;;;;;;-0.58;92.07;102950.13;5068012;28;20014;-67
2023/01/29 03:17:59;;;;;;;;;;;;;;;-0.57;92.51;102951.84;5061833;28;20006;-68
2023/01/29 03:20:37;;;;;;;;;;;;;;;-0.55;92.05;102946.38;5048388;28;19921;-67
2023/01/29 03:23:05;;;;;;;;;;;;;;;-0.54;92.44;102948.09;5060557;28;20382;-67
2023/01/29 03:33:58;;;;;;;;;;;;;;;-0.49;92.26;102934.28;5067147;28;20396;-67
2023/01/29 03:36:36;;;;;;;;;;;;;;;-0.52;92.20;102938.91;5066781;28;19928;-67
2023/01/29 03:39:03;;;;;;;;;;;;;;;-0.50;92.26;102933.41;5066347;28;19920;-66
2023/01/29 03:41:31;;;;;;;;;;;;;;;-0.49;92.15;102936.97;5066179;28;19932;-66
2023/01/29 03:44:13;;;;;;;;;;;;;;;-0.45;92.32;102935.78;5066402;28;19970;-66
2023/01/29 03:46:45;;;;;;;;;;;;;;;-0.42;92.11;102932.84;5067396;28;19955;-68
2023/01/29 03:49:14;;;;;;;;;;;;;;;-0.42;92.47;102924.75;5067450;28;19921;-67
2023/01/29 03:51:39;;;;;;;;;;;;;;;-0.39;92.28;102920.03;5066459;28;19920;-67
2023/01/29 03:54:17;;;;;;;;;;;;;;;-0.37;92.10;102922.59;5068293;28;20218;-66
2023/01/29 03:57:01;;;;;;;;;;;;;;;-0.37;92.50;102919.91;5065517;28;19916;-67
2023/01/29 03:59:29;;;;;;;;;;;;;;;-0.36;92.17;102917.09;5067313;28;19921;-66
2023/01/29 04:01:57;;;;;;;;;;;;;;;-0.35;92.39;102913.44;5056761;28;19927;-66
2023/01/29 04:04:36;;;;;;;;;;;;;;;-0.33;92.21;102913.31;5048086;28;19979;-66
2023/01/29 04:07:12;;;;;;;;;;;;;;;-0.30;92.51;102910.41;5064283;28;19917;-66
2023/01/29 04:09:49;;;;;;;;;;;;;;;-0.32;92.58;102909.63;5048900;28;20260;-66
2023/01/29 04:12:17;;;;;;;;;;;;;;;-0.32;92.70;102906.94;5051756;28;19916;-67
2023/01/29 04:14:44;;;;;;;;;;;;;;;-0.30;92.48;102905.00;5067775;28;19917;-67
2023/01/29 04:17:18;;;;;;;;;;;;;;;-0.32;92.49;102899.69;5066900;28;20389;-67
2023/01/29 04:19:43;;;;;;;;;;;;;;;-0.31;92.74;102895.16;5066389;28;21316;-66
2023/01/29 04:22:21;;;;;;;;;;;;;;;-0.30;92.37;102894.22;5066692;28;19942;-67
2023/01/29 04:24:47;;;;;;;;;;;;;;;-0.30;92.49;102894.22;5067210;28;20001;-66
2023/01/29 04:27:25;;;;;;;;;;;;;;;-0.27;92.49;102902.06;5066382;28;20484;-66
2023/01/29 04:30:01;;;;;;;;;;;;;;;-0.27;92.52;102897.53;5067303;28;20319;-66
2023/01/29 04:32:41;;;;;;;;;;;;;;;-0.23;92.46;102897.31;5066277;28;19981;-66
2023/01/29 04:35:15;;;;;;;;;;;;;;;-0.23;92.76;102900.88;5068014;28;19916;-66
2023/01/29 04:37:40;;;;;;;;;;;;;;;-0.23;93.02;102882.00;5065422;28;20417;-66
2023/01/29 04:40:25;;;;;;;;;;;;;;;-0.22;92.72;102870.22;5059910;28;19956;-66
2023/01/29 04:43:03;;;;;;;;;;;;;;;-0.19;92.50;102864.59;5065903;28;20301;-66
2023/01/29 04:45:29;;;;;;;;;;;;;;;-0.20;92.48;102870.97;5067169;28;19933;-66
2023/01/29 04:48:12;;;;;;;;;;;;;;;-0.05;92.42;102860.88;5065597;28;19921;-66
2023/01/29 04:50:45;;;;;;;;;;;;;;;-0.14;92.40;102859.72;5066426;28;19920;-66
2023/01/29 04:53:22;;;;;;;;;;;;;;;-0.13;92.43;102853.34;5066727;28;19920;-66
2023/01/29 04:55:59;;;;;;;;;;;;;;;-0.11;92.39;102854.09;5066088;28;19922;-66
2023/01/29 04:58:24;;;;;;;;;;;;;;;-0.14;92.57;102838.13;5066644;28;19920;-66
2023/01/29 05:00:52;;;;;;;;;;;;;;;-0.10;92.63;102844.13;5064146;28;20029;-66
2023/01/29 05:03:18;;;;;;;;;;;;;;;-0.09;92.27;102835.94;5067741;28;19924;-67
2023/01/29 05:05:45;;;;;;;;;;;;;;;-0.10;92.36;102836.94;5068810;28;19917;-67
2023/01/29 05:08:12;;;;;;;;;;;;;;;-0.05;92.40;102847.38;5057138;28;19927;-66
2023/01/29 05:10:37;;;;;;;;;;;;;;;-0.05;92.28;102853.66;5068381;28;20611;-67
2023/01/29 05:13:05;;;;;;;;;;;;;;;-0.05;92.19;102850.06;5066882;28;19948;-66
2023/01/29 05:15:34;;;;;;;;;;;;;;;0.03;92.27;102844.13;5070082;28;19963;-66
2023/01/29 05:18:01;;;;;;;;;;;;;;;0.04;92.28;102848.53;5069126;28;19921;-66
2023/01/29 05:20:29;;;;;;;;;;;;;;;0.02;92.66;102842.41;5069181;28;20270;-67
2023/01/29 05:22:54;;;;;;;;;;;;;;;0.05;92.70;102834.03;5065731;28;19982;-66
2023/01/29 05:25:24;;;;;;;;;;;;;;;0.06;92.41;102825.84;5049774;28;19920;-66
2023/01/29 05:28:03;;;;;;;;;;;;;;;0.04;93.32;102827.78;5049197;28;19920;-66
2023/01/29 05:30:28;;;;;;;;;;;;;;;0.06;92.90;102811.47;5053176;28;20013;-66
2023/01/29 05:32:53;;;;;;;;;;;;;;;0.10;92.61;102811.16;5069793;28;20400;-67
2023/01/29 05:35:19;;;;;;;;;;;;;;;0.03;92.93;102806.28;5065549;28;19916;-66
2023/01/29 05:37:44;;;;;;;;;;;;;;;0.04;93.41;102821.53;5067664;28;20318;-67
2023/01/29 05:40:09;;;;;;;;;;;;;;;0.07;92.93;102824.00;5051995;28;20339;-67
2023/01/29 05:42:35;;;;;;;;;;;;;;;0.07;93.32;102814.06;5049174;28;20000;-65
2023/01/29 05:45:00;;;;;;;;;;;;;;;0.10;92.78;102832.75;5049571;28;19920;-66
2023/01/29 05:47:25;;;;;;;;;;;;;;;0.12;92.87;102827.22;5049792;28;20290;-66
2023/01/29 05:49:50;;;;;;;;;;;;;;;0.15;92.76;102832.38;5060082;28;19974;-66
2023/01/29 05:52:16;;;;;;;;;;;;;;;0.19;92.59;102831.19;5063358;28;19921;-66
2023/01/29 05:54:41;;;;;;;;;;;;;;;0.20;92.67;102838.31;5056873;28;19948;-66
2023/01/29 05:57:06;;;;;;;;;;;;;;;0.20;92.93;102841.00;5068643;28;19917;-66
2023/01/29 05:59:31;;;;;;;;;;;;;;;0.21;92.76;102838.22;5068808;28;19916;-67
2023/01/29 06:01:57;;;;;;;;;;;;;;;0.25;92.77;102838.84;5067483;28;19927;-66
2023/01/29 06:04:22;;;;;;;;;;;;;;;0.24;92.94;102846.09;5068002;28;19920;-67
2023/01/29 06:06:47;;;;;;;;;;;;;;;0.27;92.88;102845.00;5066725;28;19916;-67
2023/01/29 06:09:12;;;;;;;;;;;;;;;0.28;93.12;102846.72;5078990;28;19925;-66
2023/01/29 06:11:38;;;;;;;;;;;;;;;0.29;93.16;102848.44;5066039;28;19920;-66
2023/01/29 06:14:03;;;;;;;;;;;;;;;0.30;93.23;102849.31;5063546;28;19943;-66
2023/01/29 06:16:28;;;;;;;;;;;;;;;0.31;93.49;102857.31;5065527;28;19917;-66
2023/01/29 06:18:53;;;;;;;;;;;;;;;0.33;93.29;102860.75;5048947;28;19913;-66
2023/01/29 06:21:19;;;;;;;;;;;;;;;0.34;93.11;102867.88;5055067;28;20289;-66
2023/01/29 06:23:44;;;;;;;;;;;;;;;0.35;93.25;102866.03;5067149;28;19920;-66
2023/01/29 06:26:10;;;;;;;;;;;;;;;0.37;93.23;102850.59;5064640;28;19916;-66
2023/01/29 06:28:35;;;;;;;;;;;;;;;0.37;93.27;102835.22;5067299;28;19920;-66
2023/01/29 06:31:01;;;;;;;;;;;;;;;0.38;93.44;102825.28;5065820;28;19923;-67
2023/01/29 06:33:26;;;;;;;;;;;;;;;0.42;93.07;102824.94;5067235;28;19974;-66
2023/01/29 06:35:59;;;;;;;;;;;;;;;0.38;93.70;102807.22;5062966;28;19975;-67
2023/01/29 06:38:24;;;;;;;;;;;;;;;0.36;93.71;102811.88;5066662;28;19921;-66
2023/01/29 06:40:49;;;;;;;;;;;;;;;0.32;93.66;102818.50;5057039;28;20305;-66
2023/01/29 06:43:14;;;;;;;;;;;;;;;0.35;94.21;102828.19;5064776;28;20357;-67
2023/01/29 06:45:50;;;;;;;;;;;;;;;0.32;93.80;102826.59;5066287;28;19974;-67
2023/01/29 06:48:15;;;;;;;;;;;;;;;0.33;93.75;102817.50;5067664;28;20147;-67
2023/01/29 06:50:40;;;;;;;;;;;;;;;0.37;93.82;102819.00;5065986;28;19920;-66
2023/01/29 06:53:05;;;;;;;;;;;;;;;0.37;93.95;102815.44;5066683;28;19927;-66
2023/01/29 06:55:31;;;;;;;;;;;;;;;0.36;93.47;102821.84;5065713;28;19942;-66
2023/01/29 06:57:56;;;;;;;;;;;;;;;0.34;93.48;102816.53;5065517;28;20323;-66
2023/01/29 07:00:21;;;;;;;;;;;;;;;0.35;93.46;102820.94;5061301;28;19966;-66
2023/01/29 07:02:49;;;;;;;;;;;;;;;0.38;93.46;102820.72;5055545;28;19975;-66
2023/01/29 07:05:15;;;;;;;;;;;;;;;0.40;93.31;102817.91;5058076;28;19943;-66
2023/01/29 07:07:40;;;;;;;;;;;;;;;0.38;93.94;102818.03;5061192;28;19917;-67
2023/01/29 07:10:06;;;;;;;;;;;;;;;0.39;93.50;102811.63;5064229;28;19920;-66
2023/01/29 07:12:31;;;;;;;;;;;;;;;0.39;93.77;102822.44;5061745;28;19924;-66
2023/01/29 07:14:56;;;;;;;;;;;;;;;0.47;93.41;102828.16;5065593;28;19916;-66
2023/01/29 07:17:21;;;;;;;;;;;;;;;0.46;93.68;102828.28;5066802;28;20375;-66
2023/01/29 07:19:46;;;;;;;;;;;;;;;0.41;93.50;102820.50;5066421;28;19913;-67
2023/01/29 07:22:12;;;;;;;;;;;;;;;0.42;93.40;102822.22;5063522;28;19928;-67
2023/01/29 07:24:37;;;;;;;;;;;;;;;0.48;93.39;102820.91;5066107;28;20359;-66
2023/01/29 07:27:02;;;;;;;;;;;;;;;0.47;93.78;102822.75;5062391;28;20317;-66
2023/01/29 07:29:27;;;;;;;;;;;;;;;0.50;93.79;102819.78;5066014;28;19989;-66
2023/01/29 07:31:52;;;;;;;;;;;;;;;0.50;93.75;102814.38;5062916;28;19927;-66
2023/01/29 07:34:18;;;;;;;;;;;;;;;0.51;93.77;102815.28;5066471;28;19924;-66
2023/01/29 07:36:43;;;;;;;;;;;;;;;0.60;93.26;102809.13;5064120;28;20361;-66
2023/01/29 07:39:08;;;;;;;;;;;;;;;0.51;93.62;102808.03;5065778;28;19970;-67
2023/01/29 07:41:33;;;;;;;;;;;;;;;0.53;93.69;102818.72;5059160;28;19974;-66
2023/01/29 07:43:58;;;;;;;;;;;;;;;0.57;93.48;102813.94;5064011;28;19974;-66
2023/01/29 07:46:24;;;;;;;;;;;;;;;0.56;93.68;102812.19;5066152;28;20044;-65
2023/01/29 07:48:49;;;;;;;;;;;;;;;0.63;93.51;102813.47;5066260;28;20008;-65
2023/01/29 07:51:15;;;;;;;;;;;;;;;0.58;93.45;102813.81;5064362;28;19921;-65
2023/01/29 07:53:43;;;;;;;;;;;;;;;0.57;93.49;102814.81;5065500;28;19935;-65
2023/01/29 07:56:08;;;;;;;;;;;;;;;0.56;93.90;102813.09;5065236;28;19960;-65
2023/01/29 07:58:33;;;;;;;;;;;;;;;0.58;93.91;102816.53;5066171;28;19971;-65
2023/01/29 08:00:58;;;;;;;;;;;;;;;0.59;93.71;102812.81;5063838;28;20011;-65
2023/01/29 08:03:23;;;;;;;;;;;;;;;0.60;93.73;102810.97;5064961;28;19924;-65
2023/01/29 08:05:49;;;;;;;;;;;;;;;0.60;93.87;102803.72;5064449;28;20010;-65
2023/01/29 08:08:14;;;;;;;;;;;;;;;0.63;93.80;102799.94;5065375;28;20385;-65
2023/01/29 08:10:39;;;;;;;;;;;;;;;0.62;93.41;102804.50;5061505;28;19921;-65
2023/01/29 08:13:05;;;;;;;;;;;;;;;0.63;93.43;102810.75;5065337;28;19923;-65
2023/01/29 08:15:31;;;;;;;;;;;;;;;0.63;94.13;102813.47;5055455;28;19921;-65
2023/01/29 08:17:56;;;;;;;;;;;;;;;0.69;93.75;102797.63;5045778;28;19962;-65
2023/01/29 08:20:22;;;;;;;;;;;;;;;0.70;93.56;102798.47;5050713;28;19967;-65
2023/01/29 08:22:47;;;;;;;;;;;;;;;0.73;93.14;102788.31;5065482;28;19942;-65
2023/01/29 08:25:13;;;;;;;;;;;;;;;0.67;93.37;102796.88;5064355;28;19928;-65
2023/01/29 08:27:38;;;;;;;;;;;;;;;0.66;93.68;102792.47;5064449;28;20079;-65
2023/01/29 08:30:04;;;;;;;;;;;;;;;0.70;93.48;102782.25;5053371;28;19921;-64
2023/01/29 08:32:29;;;;;;;;;;;;;;;0.68;93.27;102779.69;5056807;28;19947;-65
2023/01/29 08:34:54;;;;;;;;;;;;;;;0.75;93.37;102772.81;5056190;28;19920;-65
2023/01/29 08:37:20;;;;;;;;;;;;;;;0.70;93.26;102771.44;5054849;28;20306;-65
2023/01/29 08:39:45;;;;;;;;;;;;;;;0.67;93.46;102758.19;5066804;28;19923;-65
2023/01/29 08:42:10;;;;;;;;;;;;;;;0.92;92.55;102747.16;5062638;28;19943;-65
2023/01/29 08:44:35;;;;;;;;;;;;;;;0.77;92.84;102759.19;5070523;28;19991;-66
2023/01/29 08:47:00;;;;;;;;;;;;;;;0.73;93.19;102755.00;5070375;28;19921;-65
2023/01/29 08:49:25;;;;;;;;;;;;;;;0.76;93.18;102758.31;5070929;28;19917;-65
2023/01/29 08:51:51;;;;;;;;;;;;;;;0.80;93.23;102767.03;5070622;28;19916;-65
2023/01/29 08:54:16;;;;;;;;;;;;;;;0.91;92.68;102772.50;5056135;28;19920;-65
2023/01/29 08:56:41;;;;;;;;;;;;;;;0.99;92.17;102775.44;5069317;28;19924;-65
2023/01/29 08:59:08;;;;;;;;;;;;;;;1.04;92.10;102769.66;5071227;28;19922;-65
2023/01/29 09:01:33;;;;;;;;;;;;;;;1.00;92.38;102769.03;5070984;28;19928;-65
2023/01/29 09:03:58;;;;;;;;;;;;;;;1.01;91.97;102762.66;5068384;28;19924;-65
2023/01/29 09:06:24;;;;;;;;;;;;;;;1.14;91.78;102775.22;5067207;28;19935;-65
2023/01/29 09:08:49;;;;;;;;;;;;;;;1.08;91.94;102762.19;5052517;28;20374;-65
2023/01/29 09:11:14;;;;;;;;;;;;;;;1.09;92.01;102767.47;5069694;28;19920;-65
2023/01/29 09:13:39;;;;;;;;;;;;;;;1.12;91.80;102756.41;5066539;28;19921;-65
2023/01/29 09:16:04;;;;;;;;;;;;;;;1.15;nan;102747.16;5069721;28;19916;-65
2023/01/29 09:18:30;;;;;;;;;;;;;;;1.16;91.79;102755.16;5070077;28;20262;-65
2023/01/29 09:20:55;;;;;;;;;;;;;;;1.21;91.54;102750.22;5069751;28;19923;-65
2023/01/29 09:23:21;;;;;;;;;;;;;;;1.25;91.71;102742.72;5070266;28;20370;-65
2023/01/29 09:25:46;;;;;;;;;;;;;;;1.39;90.92;102744.34;5068595;28;20037;-65
2023/01/29 09:28:11;;;;;;;;;;;;;;;1.38;90.78;102745.34;5069504;28;20668;-65
2023/01/29 09:30:36;;;;;;;;;;;;;;;1.43;90.83;102749.38;5070483;28;20114;-65
2023/01/29 09:33:05;;;;;;;;;;;;;;;1.50;89.93;102733.50;5070030;28;20011;-65
2023/01/29 09:35:30;;;;;;;;;;;;;;;1.43;90.71;102741.25;5068783;28;20018;-65
2023/01/29 09:37:56;;;;;;;;;;;;;;;1.43;90.69;102743.97;5068877;28;19921;-65
2023/01/29 09:40:41;;;;;;;;;;;;;;;1.47;90.50;102745.44;5068878;28;19956;-65
2023/01/29 09:43:11;;;;;;;;;;;;;;;1.50;90.87;102742.47;5069579;28;19923;-65
2023/01/29 09:45:40;;;;;;;;;;;;;;;1.61;90.38;102748.84;5068830;28;19920;-65
2023/01/29 09:48:10;;;;;;;;;;;;;;;1.58;90.38;102751.84;5069638;28;19967;-65
2023/01/29 09:50:38;;;;;;;;;;;;;;;1.63;90.26;102753.19;5069776;28;19999;-65
2023/01/29 09:53:10;;;;;;;;;;;;;;;1.68;90.26;102747.38;5069821;28;20070;-65
2023/01/29 09:56:01;;;;;;;;;;;;;;;1.71;90.13;102739.00;5068601;28;19955;-65
2023/01/29 09:58:29;;;;;;;;;;;;;;;1.79;89.71;102739.22;5068465;28;19956;-65
2023/01/29 10:01:00;;;;;;;;;;;;;;;1.81;88.40;102738.09;5069105;28;19916;-65
2023/01/29 10:03:48;;;;;;;;;;;;;;;1.80;88.88;102736.38;5069225;28;19920;-65
2023/01/29 10:06:32;;;;;;;;;;;;;;;1.77;88.70;102747.50;5068611;28;19926;-65
2023/01/29 10:09:12;;;;;;;;;;;;;;;1.80;89.26;102743.66;5069319;28;19916;-65
2023/01/29 10:11:48;;;;;;;;;;;;;;;1.84;89.42;102746.97;5067004;28;19966;-64
2023/01/29 10:14:13;;;;;;;;;;;;;;;1.90;88.12;102741.91;5068806;28;19920;-66
2023/01/29 10:16:50;;;;;;;;;;;;;;;1.92;88.74;102748.03;5068796;28;19923;-65
2023/01/29 10:19:21;;;;;;;;;;;;;;;2.04;87.75;102747.03;5058610;28;19921;-65
2023/01/29 10:22:03;;;;;;;;;;;;;;;1.94;88.46;102746.09;5049762;28;19936;-65
2023/01/29 10:24:50;;;;;;;;;;;;;;;2.15;87.48;102746.13;5068116;28;19924;-65
2023/01/29 10:27:16;;;;;;;;;;;;;;;2.03;88.14;102742.63;5068563;28;19923;-65
2023/01/29 10:29:42;;;;;;;;;;;;;;;2.09;87.48;102741.25;5064823;28;19952;-65
2023/01/29 10:32:10;;;;;;;;;;;;;;;2.14;87.69;102739.00;5058107;28;19916;-65
2023/01/29 10:34:40;;;;;;;;;;;;;;;2.13;87.77;102742.72;5049413;28;20459;-65
2023/01/29 10:37:14;;;;;;;;;;;;;;;2.13;87.35;102740.00;5049309;28;20290;-65
2023/01/29 10:39:39;;;;;;;;;;;;;;;2.21;86.99;102740.19;5058477;28;20015;-65
2023/01/29 10:42:10;;;;;;;;;;;;;;;2.13;87.48;102728.25;5068756;28;20027;-65
2023/01/29 10:44:43;;;;;;;;;;;;;;;2.16;87.16;102731.59;5065187;28;19923;-64
2023/01/29 10:47:27;;;;;;;;;;;;;;;2.21;86.89;102731.19;5064277;28;19920;-66
2023/01/29 10:50:00;;;;;;;;;;;;;;;2.26;86.77;102734.38;5065015;28;20027;-64
2023/01/29 10:52:25;;;;;;;;;;;;;;;2.29;86.50;102720.59;5056871;28;20291;-65
2023/01/29 10:55:07;;;;;;;;;;;;;;;2.37;85.69;102714.50;5067025;28;19916;-65
2023/01/29 10:57:51;;;;;;;;;;;;;;;2.38;86.27;102718.91;5065180;28;19948;-65
2023/01/29 11:00:20;;;;;;;;;;;;;;;2.48;85.97;102706.28;5067148;28;20015;-65
2023/01/29 11:02:47;;;;;;;;;;;;;;;2.48;85.98;102701.72;5067323;28;20272;-65
2023/01/29 11:05:18;;;;;;;;;;;;;;;2.52;85.02;102689.63;5068597;28;19920;-65
2023/01/29 11:07:43;;;;;;;;;;;;;;;2.52;85.20;102689.63;5067057;28;19963;-65
2023/01/29 11:10:13;;;;;;;;;;;;;;;2.61;84.95;102685.25;5066213;28;19978;-65
2023/01/29 11:12:40;;;;;;;;;;;;;;;2.62;84.79;102678.84;5064296;28;19924;-66
2023/01/29 11:15:13;;;;;;;;;;;;;;;2.73;83.97;102673.31;5065764;28;19917;-65
2023/01/29 11:17:38;;;;;;;;;;;;;;;2.68;84.35;102656.59;5066034;28;19974;-66
2023/01/29 11:20:05;;;;;;;;;;;;;;;2.69;85.02;102652.03;5067412;28;20244;-65
2023/01/29 11:22:30;;;;;;;;;;;;;;;2.82;83.93;102641.81;5064991;28;19924;-65
2023/01/29 11:25:09;;;;;;;;;;;;;;;2.94;83.58;102646.16;5066417;28;19917;-65
2023/01/29 11:27:39;;;;;;;;;;;;;;;2.92;83.65;102641.84;5059345;28;19920;-66
2023/01/29 11:30:05;;;;;;;;;;;;;;;2.91;83.72;102646.44;5053940;28;19921;-66
2023/01/29 11:32:33;;;;;;;;;;;;;;;3.25;81.31;102632.56;5051305;28;20001;-66
2023/01/29 11:35:04;;;;;;;;;;;;;;;2.96;82.55;102627.03;5047414;28;19921;-66
2023/01/29 11:37:32;;;;;;;;;;;;;;;2.95;82.95;102625.31;5060823;28;19920;-66
2023/01/29 11:39:58;;;;;;;;;;;;;;;3.10;82.59;102622.06;5058878;28;20047;-66
2023/01/29 11:42:25;;;;;;;;;;;;;;;3.09;82.16;102611.34;5058596;28;20015;-66
2023/01/29 11:44:51;;;;;;;;;;;;;;;3.01;83.10;102622.91;5058419;28;19931;-66
2023/01/29 11:47:18;;;;;;;;;;;;;;;3.22;81.46;102614.66;5063699;28;19940;-66
2023/01/29 11:49:53;;;;;;;;;;;;;;;3.04;82.24;102608.19;5056268;28;20261;-66
2023/01/29 11:52:32;;;;;;;;;;;;;;;3.11;82.15;102596.63;5048316;28;19992;-67
2023/01/29 11:55:01;;;;;;;;;;;;;;;2.98;82.81;102592.44;5049065;28;19987;-64
2023/01/29 11:57:31;;;;;;;;;;;;;;;3.34;80.37;102577.38;5062744;28;19924;-65
2023/01/29 12:00:14;;;;;;;;;;;;;;;3.04;81.96;102581.91;5061377;28;19939;-65
2023/01/29 12:02:44;;;;;;;;;;;;;;;3.00;82.41;102574.19;5055599;28;19928;-65
2023/01/29 12:05:17;;;;;;;;;;;;;;;3.15;82.27;102571.94;5051371;28;19928;-66
2023/01/29 12:07:44;;;;;;;;;;;;;;;3.17;81.09;102570.78;5060195;28;20015;-66
2023/01/29 12:10:42;;;;;;;;;;;;;;;3.08;82.19;102574.34;5051388;28;19928;-66
2023/01/29 12:13:20;;;;;;;;;;;;;;;3.01;82.42;102565.03;5025017;28;19928;-65
2023/01/29 12:15:46;;;;;;;;;;;;;;;3.14;81.75;102565.63;5068793;28;19920;-66
2023/01/29 12:18:12;;;;;;;;;;;;;;;3.07;81.64;102559.91;5070866;28;19928;-66
2023/01/29 12:20:44;;;;;;;;;;;;;;;2.97;83.00;102555.47;5063846;28;19962;-69
2023/01/29 12:23:18;;;;;;;;;;;;;;;3.06;82.80;102549.19;5052686;28;19928;-68
2023/01/29 12:25:50;;;;;;;;;;;;;;;3.01;82.16;102549.63;5062519;28;20278;-67
2023/01/29 12:28:27;;;;;;;;;;;;;;;3.08;82.34;102545.31;5070451;28;19912;-68
2023/01/29 12:30:59;;;;;;;;;;;;;;;3.11;81.69;102545.06;5069494;28;19920;-68
2023/01/29 12:33:38;;;;;;;;;;;;;;;3.04;82.55;102543.03;5071924;28;19916;-66
2023/01/29 12:36:12;;;;;;;;;;;;;;;3.05;82.30;102529.34;5067836;28;19956;-62
2023/01/29 12:38:39;;;;;;;;;;;;;;;3.07;82.29;102527.34;5052513;28;19920;-64
2023/01/29 12:41:09;;;;;;;;;;;;;;;3.16;81.54;102519.34;5049924;28;19923;-63
2023/01/29 16:08:01;;;;;;;42.92;25.60;;;;;;;2.66;87.35;102288.81;5057750;28;20412;-68
2023/01/29 16:10:29;;;;;;;41.97;26.77;;;;;;;2.65;87.56;102279.81;5034823;28;20052;-66
2023/01/29 16:12:56;;;;;;;39.60;25.05;;;;;;;2.67;88.17;102288.66;5032903;28;20032;-61
2023/01/29 16:15:34;;;;;;;48.28;29.77;;;;;;;2.69;88.32;102288.53;5041484;28;20029;-67
2023/01/29 16:18:03;;;;;;;43.67;27.90;;;;;;;2.73;88.78;102279.94;5056783;28;20057;-67
2023/01/29 16:20:28;;;;;;;42.15;26.77;;;;;;;2.71;88.52;102284.66;5041846;28;20037;-66
2023/01/29 16:22:53;;;;;;;41.57;26.70;;;;;;;2.73;88.85;102269.09;5041816;28;20021;-64
2023/01/29 16:25:19;;;;;;;42.10;26.83;;;;;;;2.76;88.43;102266.09;5044764;28;20655;-65
2023/01/29 16:27:44;;;;;;;40.15;24.73;;;;;;;2.75;88.38;102277.97;5037847;28;20045;-65
2023/01/29 16:30:15;;;;;;;42.58;27.27;;;;;;;2.76;88.81;102273.38;5040490;28;20079;-65
2023/01/29 16:32:40;;;;;;;42.65;25.98;;;;;;;2.78;88.77;102269.50;5041755;28;20029;-67
2023/01/29 16:35:06;;;;;;;44.78;26.73;;;;;;;2.77;88.90;102275.94;5040436;28;20442;-66
2023/01/29 16:37:35;;;;;;;40.33;25.35;;;;;;;2.79;88.34;102270.41;5034186;28;20029;-67
2023/01/29 16:40:11;;;;;;;42.05;26.95;;;;;;;2.80;88.39;102264.81;5040465;28;20037;-66